createdAt,value
2022-08-27T00:04:16.478Z,960.15
2022-08-27T00:09:19.091Z,960.1
2022-08-27T00:14:19.821Z,960.12
2022-08-27T00:19:21.943Z,960.13
2022-08-27T00:24:23.242Z,960.12
2022-08-27T00:29:25.014Z,960.15
2022-08-27T00:34:26.874Z,960.07
2022-08-27T00:39:28.035Z,960.04
2022-08-27T00:44:29.602Z,960.05
2022-08-27T00:49:31.314Z,960.07
2022-08-27T00:54:32.906Z,960.17
2022-08-27T00:59:34.625Z,960.11
2022-08-27T01:04:36.076Z,960.21
2022-08-27T01:09:37.565Z,960.21
2022-08-27T01:14:39.628Z,960.17
2022-08-27T01:19:41.675Z,960.15
2022-08-27T01:24:44.010Z,960.11
2022-08-27T01:29:45.596Z,960.15
2022-08-27T01:34:47.007Z,960.18
2022-08-27T01:39:48.517Z,960.21
2022-08-27T01:44:50.522Z,960.19
2022-08-27T01:49:52.229Z,960.2
2022-08-27T01:54:54.130Z,960.14
2022-08-27T01:59:55.675Z,960.13
2022-08-27T02:04:57.493Z,960.09
2022-08-27T02:09:58.837Z,960.05
2022-08-27T02:15:00.838Z,960.11
2022-08-27T02:20:02.998Z,960.02
2022-08-27T02:25:04.461Z,960.04
2022-08-27T02:30:05.792Z,960.1
2022-08-27T02:35:07.953Z,960.08
2022-08-27T02:40:09.404Z,960.1
2022-08-27T02:45:11.233Z,960.11
2022-08-27T02:50:12.727Z,960.12
2022-08-27T02:55:14.337Z,960.16
2022-08-27T03:00:16.112Z,960.21
2022-08-27T03:05:17.929Z,960.19
2022-08-27T03:10:19.245Z,960.19
2022-08-27T03:15:20.765Z,960.17
2022-08-27T03:20:22.262Z,960.15
2022-08-27T03:25:24.348Z,960.1
2022-08-27T03:30:25.732Z,960.13
2022-08-27T03:35:27.879Z,960.14
2022-08-27T03:40:29.827Z,960.12
2022-08-27T03:45:31.063Z,960.12
2022-08-27T03:50:33.033Z,960.07
2022-08-27T03:55:34.894Z,960.1
2022-08-27T04:00:36.452Z,960.02
2022-08-27T04:05:37.660Z,960.06
2022-08-27T04:10:39.716Z,960.09
2022-08-27T04:15:41.137Z,960.11
2022-08-27T04:20:42.579Z,960.1
2022-08-27T04:25:44.070Z,960.1
2022-08-27T04:30:46.315Z,960.14
2022-08-27T04:35:48.250Z,960.2
2022-08-27T04:40:49.380Z,960.2
2022-08-27T04:45:51.483Z,960.21
2022-08-27T04:50:52.818Z,960.15
2022-08-27T04:55:54.086Z,960.16
2022-08-27T05:00:55.368Z,960.24
2022-08-27T05:05:57.124Z,960.18
2022-08-27T05:10:58.864Z,960.21
2022-08-27T05:16:00.844Z,960.25
2022-08-27T05:21:02.856Z,960.27
2022-08-27T05:26:04.138Z,960.3
2022-08-27T05:31:06.312Z,960.33
2022-08-27T05:36:08.228Z,960.28
2022-08-27T05:41:09.985Z,960.27
2022-08-27T05:46:11.937Z,960.29
2022-08-27T05:51:13.150Z,960.29
2022-08-27T05:56:14.350Z,960.28
2022-08-27T06:01:15.746Z,960.26
2022-08-27T06:06:17.024Z,960.23
2022-08-27T06:11:19.180Z,960.28
2022-08-27T06:16:20.585Z,960.35
2022-08-27T06:21:24.558Z,960.44
2022-08-27T06:26:24.221Z,960.42
2022-08-27T06:31:26.425Z,960.45
2022-08-27T06:36:28.341Z,960.38
2022-08-27T06:46:31.577Z,960.37
2022-08-27T06:51:33.323Z,960.43
2022-08-27T06:56:35.402Z,960.46
2022-08-27T07:01:36.980Z,960.4
2022-08-27T07:06:38.605Z,960.39
2022-08-27T07:11:40.751Z,960.44
2022-08-27T07:16:42.315Z,960.48
2022-08-27T07:21:44.001Z,960.49
2022-08-27T07:26:45.397Z,960.52
2022-08-27T07:31:47.522Z,960.57
2022-08-27T07:36:48.993Z,960.6
2022-08-27T07:41:50.955Z,960.64
2022-08-27T07:46:52.409Z,960.65
2022-08-27T07:51:54.414Z,960.68
2022-08-27T07:56:56.283Z,960.71
2022-08-27T08:01:58.181Z,960.74
2022-08-27T08:07:00.049Z,960.73
2022-08-27T08:12:01.543Z,960.81
2022-08-27T08:17:03.539Z,960.78
2022-08-27T08:22:06.123Z,960.8
2022-08-27T08:27:07.808Z,960.89
2022-08-27T08:32:08.544Z,960.91
2022-08-27T08:37:10.630Z,960.93
2022-08-27T08:42:11.805Z,960.98
2022-08-27T08:47:13.752Z,960.97
2022-08-27T08:52:18.257Z,960.98
2022-08-27T08:57:18.534Z,960.97
2022-08-27T09:02:18.360Z,960.94
2022-08-27T09:07:19.745Z,960.98
2022-08-27T09:12:20.909Z,960.97
2022-08-27T09:17:22.334Z,960.98
2022-08-27T09:22:23.597Z,960.98
2022-08-27T09:27:25.139Z,961
2022-08-27T09:32:26.898Z,960.98
2022-08-27T09:37:34.353Z,961.02
2022-08-27T09:42:30.273Z,960.99
2022-08-27T09:47:32.430Z,960.96
2022-08-27T09:52:34.517Z,960.94
2022-08-27T09:57:35.732Z,960.93
2022-08-27T10:02:37.155Z,960.91
2022-08-27T10:07:38.577Z,960.89
2022-08-27T10:12:40.342Z,960.83
2022-08-27T10:17:41.896Z,960.81
2022-08-27T10:22:43.913Z,960.79
2022-08-27T10:27:46.079Z,960.78
2022-08-27T10:32:52.122Z,960.74
2022-08-27T10:37:49.989Z,960.75
2022-08-27T10:42:52.028Z,960.72
2022-08-27T10:47:52.878Z,960.7
2022-08-27T10:52:54.968Z,960.68
2022-08-27T10:58:00.754Z,960.66
2022-08-27T11:02:57.474Z,960.63
2022-08-27T11:07:58.809Z,960.6
2022-08-27T11:13:00.898Z,960.56
2022-08-27T11:18:02.224Z,960.58
2022-08-27T11:23:04.282Z,960.47
2022-08-27T12:23:25.212Z,960.04
2022-08-27T12:33:28.734Z,959.85
2022-08-27T12:38:30.586Z,959.85
2022-08-27T12:43:32.535Z,959.8
2022-08-27T12:48:34.586Z,959.82
2022-08-27T12:53:35.836Z,959.86
2022-08-27T12:58:37.352Z,959.83
2022-08-27T13:03:39.358Z,959.76
2022-08-27T13:08:40.667Z,959.72
2022-08-27T13:13:42.579Z,959.7
2022-08-27T13:18:43.846Z,959.65
2022-08-27T13:23:45.429Z,959.59
2022-08-27T13:28:46.816Z,959.55
2022-08-27T13:33:48.411Z,959.42
2022-08-27T13:38:50.490Z,959.46
2022-08-27T13:43:54.786Z,959.45
2022-08-27T13:48:54.174Z,959.44
2022-08-27T13:53:55.848Z,959.53
2022-08-27T13:58:57.258Z,959.6
2022-08-27T14:03:59.152Z,959.61
2022-08-27T14:09:00.466Z,959.58
2022-08-27T14:14:11.663Z,959.63
2022-08-27T14:19:04.020Z,959.61
2022-08-27T14:24:05.768Z,959.59
2022-08-27T14:29:13.650Z,959.58
2022-08-27T14:34:15.587Z,959.52
2022-08-27T14:39:17.668Z,959.46
2022-08-27T14:44:19.809Z,959.43
2022-08-27T14:49:20.996Z,959.46
2022-08-27T14:54:22.833Z,959.44
2022-08-27T14:59:24.514Z,959.39
2022-08-27T15:04:26.025Z,959.36
2022-08-27T15:09:27.696Z,959.34
2022-08-27T15:14:29.237Z,959.32
2022-08-27T15:19:30.657Z,959.37
2022-08-27T15:24:32.302Z,959.32
2022-08-27T15:29:33.761Z,959.27
2022-08-27T15:34:35.448Z,959.3
2022-08-27T15:39:36.581Z,959.39
2022-08-27T15:44:38.654Z,959.45
2022-08-27T15:49:39.952Z,959.45
2022-08-27T15:54:42.050Z,959.52
2022-08-27T15:59:43.754Z,959.58
2022-08-27T16:04:46.931Z,959.62
2022-08-27T16:09:46.924Z,959.62
2022-08-27T16:14:48.155Z,959.59
2022-08-27T16:19:49.691Z,959.6
2022-08-27T16:24:51.254Z,959.61
2022-08-27T16:29:52.705Z,959.58
2022-08-27T16:34:55.710Z,959.51
2022-08-27T16:39:56.871Z,959.46
2022-08-27T16:44:58.517Z,959.54
2022-08-27T16:50:00.215Z,959.52
2022-08-27T16:55:02.271Z,959.55
2022-08-27T17:00:03.840Z,959.62
2022-08-27T17:05:23.982Z,959.74
2022-08-27T17:10:06.367Z,959.81
2022-08-27T17:15:08.052Z,959.81
2022-08-27T17:20:10.129Z,959.85
2022-08-27T17:25:11.957Z,959.91
2022-08-27T17:30:13.416Z,959.9
2022-08-27T17:35:15.569Z,959.91
2022-08-27T17:40:17.637Z,959.84
2022-08-27T17:45:19.704Z,959.97
2022-08-27T17:50:21.256Z,960.03
2022-08-27T17:55:22.630Z,960
2022-08-27T18:00:24.388Z,960.09
2022-08-27T18:05:26.456Z,960.1
2022-08-27T18:10:27.642Z,960.21
2022-08-27T18:15:28.910Z,960.24
2022-08-27T18:20:30.403Z,960.28
2022-08-27T18:25:35.888Z,960.38
2022-08-27T18:30:33.030Z,960.47
2022-08-27T18:35:34.441Z,960.53
2022-08-27T18:40:36.267Z,960.56
2022-08-27T18:45:37.783Z,960.63
2022-08-27T18:50:39.748Z,960.62
2022-08-27T18:55:41.222Z,960.7
2022-08-27T19:00:43.018Z,960.75
2022-08-27T19:05:44.416Z,960.8
2022-08-27T19:10:45.691Z,960.83
2022-08-27T19:15:47.035Z,960.89
2022-08-27T19:20:48.358Z,960.92
2022-08-27T19:25:49.607Z,960.89
2022-08-27T19:30:50.924Z,960.92
2022-08-27T19:35:52.843Z,960.9
2022-08-27T19:40:54.244Z,960.89
2022-08-27T19:45:56.085Z,960.97
2022-08-27T19:50:57.758Z,960.96
2022-08-27T19:55:58.948Z,961.04
2022-08-27T20:01:00.598Z,961.03
2022-08-27T20:06:02.755Z,961.04
2022-08-27T20:11:04.132Z,961.04
2022-08-27T20:16:06.157Z,960.98
2022-08-27T20:21:08.318Z,961.08
2022-08-27T20:26:09.773Z,961.05
2022-08-27T20:31:11.179Z,961.09
2022-08-27T20:36:13.281Z,961.11
2022-08-27T20:41:14.681Z,961.13
2022-08-27T20:46:16.089Z,961.13
2022-08-27T20:51:17.637Z,961.12
2022-08-27T20:56:19.613Z,961.21
2022-08-27T21:01:21.112Z,961.2
2022-08-27T21:06:25.082Z,961.14
2022-08-27T21:11:23.980Z,961.2
2022-08-27T21:16:26.012Z,961.23
2022-08-27T21:21:28.105Z,961.25
2022-08-27T21:26:29.604Z,961.25
2022-08-27T21:31:31.324Z,961.34
2022-08-27T21:36:33.113Z,961.47
2022-08-27T21:41:37.390Z,961.51
2022-08-27T21:46:36.019Z,961.52
2022-08-27T21:51:37.717Z,961.54
2022-08-27T21:56:39.420Z,961.59
2022-08-27T22:11:58.737Z,961.69
2022-08-27T22:16:45.531Z,961.66
2022-08-27T22:21:47.600Z,961.68
2022-08-27T22:26:49.301Z,961.72
2022-08-27T22:31:51.022Z,961.67
2022-08-27T22:36:52.291Z,961.68
2022-08-27T22:41:54.050Z,961.71
2022-08-27T22:46:55.442Z,961.68
2022-08-27T22:51:56.730Z,961.7
2022-08-27T22:56:57.994Z,961.64
2022-08-27T23:01:59.432Z,961.64
2022-08-27T23:07:01.555Z,961.59
2022-08-27T23:12:02.878Z,961.58
2022-08-27T23:17:04.666Z,961.6
2022-08-27T23:22:07.061Z,961.55
2022-08-27T23:27:07.792Z,961.51
2022-08-27T23:32:09.033Z,961.51
2022-08-27T23:37:10.648Z,961.54
2022-08-27T23:42:12.254Z,961.49
2022-08-27T23:47:13.744Z,961.5
2022-08-27T23:52:14.950Z,961.53
2022-08-27T23:57:16.532Z,961.54
